sensor_id;sensor_type;location;lat;lon;timestamp;temperature;humidity
39695;DHT22;25367;-35.352;149.036;2023-06-26T08:59:48;17.70;58.60
39695;DHT22;25367;-35.352;149.036;2023-06-26T09:02:18;17.80;59.50
39695;DHT22;25367;-35.352;149.036;2023-06-26T09:04:48;17.90;59.40
39695;DHT22;25367;-35.352;149.036;2023-06-26T09:07:18;18.10;59.20
39695;DHT22;25367;-35.352;149.036;2023-06-26T09:09:47;18.20;58.90
39695;DHT22;25367;-35.352;149.036;2023-06-26T09:12:17;18.30;58.70
39695;DHT22;25367;-35.352;149.036;2023-06-26T09:14:50;18.40;58.50
39695;DHT22;25367;-35.352;149.036;2023-06-26T09:17:20;18.50;58.30
39695;DHT22;25367;-35.352;149.036;2023-06-26T09:19:53;18.50;58.00
39695;DHT22;25367;-35.352;149.036;2023-06-26T09:22:23;18.60;57.90
39695;DHT22;25367;-35.352;149.036;2023-06-26T09:24:52;18.60;57.60
39695;DHT22;25367;-35.352;149.036;2023-06-26T09:27:22;18.60;57.50
39695;DHT22;25367;-35.352;149.036;2023-06-26T09:29:55;18.70;57.30
39695;DHT22;25367;-35.352;149.036;2023-06-26T09:32:26;18.70;57.20
39695;DHT22;25367;-35.352;149.036;2023-06-26T09:34:55;18.70;57.00
39695;DHT22;25367;-35.352;149.036;2023-06-26T09:37:24;18.80;57.00
39695;DHT22;25367;-35.352;149.036;2023-06-26T09:39:55;18.80;56.90
39695;DHT22;25367;-35.352;149.036;2023-06-26T09:42:25;18.80;56.90
39695;DHT22;25367;-35.352;149.036;2023-06-26T09:44:57;18.90;57.00
39695;DHT22;25367;-35.352;149.036;2023-06-26T09:47:29;18.90;57.20
39695;DHT22;25367;-35.352;149.036;2023-06-26T09:49:59;19.00;57.50
39695;DHT22;25367;-35.352;149.036;2023-06-26T09:52:29;19.00;57.60
39695;DHT22;25367;-35.352;149.036;2023-06-26T09:55:11;19.00;57.60
39695;DHT22;25367;-35.352;149.036;2023-06-26T09:57:41;19.10;57.30
39695;DHT22;25367;-35.352;149.036;2023-06-26T10:00:16;19.10;57.40
39695;DHT22;25367;-35.352;149.036;2023-06-26T10:02:47;19.10;57.20
39695;DHT22;25367;-35.352;149.036;2023-06-26T10:05:16;19.20;57.20
39695;DHT22;25367;-35.352;149.036;2023-06-26T10:07:47;19.20;57.10
39695;DHT22;25367;-35.352;149.036;2023-06-26T10:10:18;19.20;57.00
39695;DHT22;25367;-35.352;149.036;2023-06-26T10:12:51;19.20;56.90
39695;DHT22;25367;-35.352;149.036;2023-06-26T10:15:24;19.20;56.80
39695;DHT22;25367;-35.352;149.036;2023-06-26T10:17:57;19.20;56.80
39695;DHT22;25367;-35.352;149.036;2023-06-26T10:20:26;19.20;56.70
39695;DHT22;25367;-35.352;149.036;2023-06-26T10:22:57;19.20;57.20
39695;DHT22;25367;-35.352;149.036;2023-06-26T10:25:28;19.20;57.00
39695;DHT22;25367;-35.352;149.036;2023-06-26T10:27:59;19.30;56.90
39695;DHT22;25367;-35.352;149.036;2023-06-26T10:30:34;19.30;56.80
39695;DHT22;25367;-35.352;149.036;2023-06-26T10:33:04;19.30;56.80
39695;DHT22;25367;-35.352;149.036;2023-06-26T10:35:40;19.30;56.80
39695;DHT22;25367;-35.352;149.036;2023-06-26T10:38:10;19.40;56.90
39695;DHT22;25367;-35.352;149.036;2023-06-26T10:40:43;19.40;56.90
39695;DHT22;25367;-35.352;149.036;2023-06-26T10:43:14;19.50;57.10
39695;DHT22;25367;-35.352;149.036;2023-06-26T10:45:49;19.50;57.30
39695;DHT22;25367;-35.352;149.036;2023-06-26T10:48:20;19.50;57.80
39695;DHT22;25367;-35.352;149.036;2023-06-26T10:50:51;19.60;57.60
39695;DHT22;25367;-35.352;149.036;2023-06-26T10:53:26;19.70;57.90
39695;DHT22;25367;-35.352;149.036;2023-06-26T10:55:57;19.70;57.90
39695;DHT22;25367;-35.352;149.036;2023-06-26T10:58:40;19.80;58.10
39695;DHT22;25367;-35.352;149.036;2023-06-26T11:01:22;19.90;57.80
39695;DHT22;25367;-35.352;149.036;2023-06-26T11:04:06;19.90;57.40
39695;DHT22;25367;-35.352;149.036;2023-06-26T11:06:37;20.00;57.20
39695;DHT22;25367;-35.352;149.036;2023-06-26T11:09:14;20.00;57.00
39695;DHT22;25367;-35.352;149.036;2023-06-26T11:11:59;20.00;56.70
39695;DHT22;25367;-35.352;149.036;2023-06-26T11:14:31;20.10;56.60
39695;DHT22;25367;-35.352;149.036;2023-06-26T11:17:04;20.00;56.40
39695;DHT22;25367;-35.352;149.036;2023-06-26T11:19:34;20.10;56.40
39695;DHT22;25367;-35.352;149.036;2023-06-26T11:22:05;20.10;56.30
39695;DHT22;25367;-35.352;149.036;2023-06-26T11:24:35;20.10;56.10
39695;DHT22;25367;-35.352;149.036;2023-06-26T11:27:06;20.10;56.00
39695;DHT22;25367;-35.352;149.036;2023-06-26T11:29:35;20.20;56.00
39695;DHT22;25367;-35.352;149.036;2023-06-26T11:32:08;20.20;55.90
39695;DHT22;25367;-35.352;149.036;2023-06-26T11:34:37;20.20;55.90
39695;DHT22;25367;-35.352;149.036;2023-06-26T11:37:07;20.10;55.70
39695;DHT22;25367;-35.352;149.036;2023-06-26T11:39:37;20.20;55.70
39695;DHT22;25367;-35.352;149.036;2023-06-26T11:42:07;20.20;55.70
39695;DHT22;25367;-35.352;149.036;2023-06-26T11:44:42;20.20;55.60
39695;DHT22;25367;-35.352;149.036;2023-06-26T11:47:18;20.20;55.60
39695;DHT22;25367;-35.352;149.036;2023-06-26T11:49:49;20.20;55.50
39695;DHT22;25367;-35.352;149.036;2023-06-26T11:52:19;20.20;55.40
39695;DHT22;25367;-35.352;149.036;2023-06-26T11:54:49;20.20;55.30
39695;DHT22;25367;-35.352;149.036;2023-06-26T11:57:18;20.20;55.30
39695;DHT22;25367;-35.352;149.036;2023-06-26T11:59:49;20.20;55.50
39695;DHT22;25367;-35.352;149.036;2023-06-26T12:02:22;20.20;55.30
39695;DHT22;25367;-35.352;149.036;2023-06-26T12:04:52;20.20;55.30
39695;DHT22;25367;-35.352;149.036;2023-06-26T12:07:21;20.20;55.30
39695;DHT22;25367;-35.352;149.036;2023-06-26T12:09:51;20.20;55.30
39695;DHT22;25367;-35.352;149.036;2023-06-26T12:12:20;20.20;55.30
39695;DHT22;25367;-35.352;149.036;2023-06-26T12:14:52;20.10;55.30
39695;DHT22;25367;-35.352;149.036;2023-06-26T12:17:23;20.10;55.10
39695;DHT22;25367;-35.352;149.036;2023-06-26T12:19:53;20.10;55.00
39695;DHT22;25367;-35.352;149.036;2023-06-26T12:22:23;20.10;54.80
39695;DHT22;25367;-35.352;149.036;2023-06-26T12:24:56;20.10;54.90
39695;DHT22;25367;-35.352;149.036;2023-06-26T12:27:26;20.10;54.80
39695;DHT22;25367;-35.352;149.036;2023-06-26T12:29:57;20.10;55.00
39695;DHT22;25367;-35.352;149.036;2023-06-26T21:45:58;15.10;58.60
39695;DHT22;25367;-35.352;149.036;2023-06-26T21:48:26;15.10;59.30
39695;DHT22;25367;-35.352;149.036;2023-06-26T21:50:56;15.20;59.00
39695;DHT22;25367;-35.352;149.036;2023-06-26T21:53:26;15.30;59.40
39695;DHT22;25367;-35.352;149.036;2023-06-26T21:55:55;15.50;59.20
39695;DHT22;25367;-35.352;149.036;2023-06-26T21:58:25;15.60;59.00
39695;DHT22;25367;-35.352;149.036;2023-06-26T22:00:58;15.70;58.80
39695;DHT22;25367;-35.352;149.036;2023-06-26T22:03:27;15.70;58.60
39695;DHT22;25367;-35.352;149.036;2023-06-26T22:05:57;15.80;58.60
39695;DHT22;25367;-35.352;149.036;2023-06-26T22:08:26;15.90;58.50
39695;DHT22;25367;-35.352;149.036;2023-06-26T22:10:56;15.90;59.00
39695;DHT22;25367;-35.352;149.036;2023-06-26T22:13:26;15.90;58.30
39695;DHT22;25367;-35.352;149.036;2023-06-26T22:15:57;16.00;58.20
39695;DHT22;25367;-35.352;149.036;2023-06-26T22:18:27;16.00;58.20
39695;DHT22;25367;-35.352;149.036;2023-06-26T22:20:56;16.00;58.10
39695;DHT22;25367;-35.352;149.036;2023-06-26T22:23:26;16.00;58.00
39695;DHT22;25367;-35.352;149.036;2023-06-26T22:25:55;16.10;58.00
39695;DHT22;25367;-35.352;149.036;2023-06-26T22:28:25;16.10;57.90
39695;DHT22;25367;-35.352;149.036;2023-06-26T22:30:58;16.10;57.90
39695;DHT22;25367;-35.352;149.036;2023-06-26T22:33:27;16.10;57.80
39695;DHT22;25367;-35.352;149.036;2023-06-26T22:35:57;16.10;57.70
39695;DHT22;25367;-35.352;149.036;2023-06-26T22:38:26;16.10;57.70
39695;DHT22;25367;-35.352;149.036;2023-06-26T22:40:56;16.10;57.70
39695;DHT22;25367;-35.352;149.036;2023-06-26T22:43:26;16.20;57.70
39695;DHT22;25367;-35.352;149.036;2023-06-26T22:45:58;16.20;58.30
39695;DHT22;25367;-35.352;149.036;2023-06-26T22:48:28;16.20;57.70
39695;DHT22;25367;-35.352;149.036;2023-06-26T22:50:57;16.20;57.60
39695;DHT22;25367;-35.352;149.036;2023-06-26T22:53:27;16.20;57.60
39695;DHT22;25367;-35.352;149.036;2023-06-26T22:55:57;16.20;57.60
39695;DHT22;25367;-35.352;149.036;2023-06-26T22:58:26;16.20;57.50
39695;DHT22;25367;-35.352;149.036;2023-06-26T23:00:58;16.30;57.50
39695;DHT22;25367;-35.352;149.036;2023-06-26T23:03:28;16.30;57.50
39695;DHT22;25367;-35.352;149.036;2023-06-26T23:05:57;16.30;57.40
39695;DHT22;25367;-35.352;149.036;2023-06-26T23:08:28;16.30;57.40
39695;DHT22;25367;-35.352;149.036;2023-06-26T23:10:58;16.30;57.40
39695;DHT22;25367;-35.352;149.036;2023-06-26T23:13:28;16.30;57.30
39695;DHT22;25367;-35.352;149.036;2023-06-26T23:16:13;16.30;57.30
39695;DHT22;25367;-35.352;149.036;2023-06-26T23:18:44;16.30;57.10
39695;DHT22;25367;-35.352;149.036;2023-06-26T23:21:14;16.30;57.20
39695;DHT22;25367;-35.352;149.036;2023-06-26T23:23:49;16.30;57.20
39695;DHT22;25367;-35.352;149.036;2023-06-26T23:26:19;16.30;57.20
39695;DHT22;25367;-35.352;149.036;2023-06-26T23:28:48;16.30;57.20
39695;DHT22;25367;-35.352;149.036;2023-06-26T23:31:21;16.30;57.10
39695;DHT22;25367;-35.352;149.036;2023-06-26T23:33:51;16.30;57.10
39695;DHT22;25367;-35.352;149.036;2023-06-26T23:36:21;16.30;57.10
39695;DHT22;25367;-35.352;149.036;2023-06-26T23:38:51;16.30;57.10
39695;DHT22;25367;-35.352;149.036;2023-06-26T23:41:20;16.30;57.00
39695;DHT22;25367;-35.352;149.036;2023-06-26T23:43:50;16.30;57.00
39695;DHT22;25367;-35.352;149.036;2023-06-26T23:46:21;16.30;57.00
39695;DHT22;25367;-35.352;149.036;2023-06-26T23:49:09;16.30;57.00
39695;DHT22;25367;-35.352;149.036;2023-06-26T23:51:39;16.30;57.00
39695;DHT22;25367;-35.352;149.036;2023-06-26T23:54:08;16.30;56.90
39695;DHT22;25367;-35.352;149.036;2023-06-26T23:56:38;16.30;56.80
39695;DHT22;25367;-35.352;149.036;2023-06-26T23:59:07;16.40;56.90
